Time;durP1;ratioP1;P1;durP2;ratioP2;P2;SDS_P1;SDS_P2;PMS_P1;PMS_P2;Temp;Humidity;BMP_temperature;BMP_pressure;BME280_temperature;BME280_humidity;BME280_pressure;Samples;Min_cycle;Max_cycle;Signal;HPM_P1;HPM_P2
2023/02/03 00:01:05;;;;;;;;;;;25.90;68.90;;;;;;5006397;28;19905;-70
2023/02/03 00:03:32;;;;;;;;;;;25.90;68.60;;;;;;5005808;28;20429;-64
2023/02/03 00:05:59;;;;;;;;;;;25.80;68.10;;;;;;5005723;28;19913;-60
2023/02/03 00:08:26;;;;;;;;;;;25.90;68.10;;;;;;5004335;28;19920;-62
2023/02/03 00:10:53;;;;;;;;;;;26.10;68.30;;;;;;5003460;28;20312;-65
2023/02/03 00:13:19;;;;;;;;;;;26.20;68.00;;;;;;5004627;28;19909;-59
2023/02/03 00:15:45;;;;;;;;;;;26.60;68.30;;;;;;5005270;28;19917;-61
2023/02/03 00:18:12;;;;;;;;;;;26.70;68.90;;;;;;5002743;28;20479;-64
2023/02/03 00:20:38;;;;;;;;;;;26.80;68.00;;;;;;5004167;28;19929;-60
2023/02/03 00:23:05;;;;;;;;;;;26.80;68.30;;;;;;5004583;28;20370;-63
2023/02/03 00:25:32;;;;;;;;;;;27.00;68.80;;;;;;5001976;28;19914;-65
2023/02/03 00:27:58;;;;;;;;;;;27.00;67.50;;;;;;5005573;28;19913;-61
2023/02/03 00:30:25;;;;;;;;;;;27.10;67.70;;;;;;5005203;28;19924;-71
2023/02/03 00:32:51;;;;;;;;;;;27.20;68.00;;;;;;5005320;28;19909;-62
2023/02/03 00:35:18;;;;;;;;;;;27.40;68.10;;;;;;5003897;28;19917;-72
2023/02/03 00:37:49;;;;;;;;;;;27.50;67.60;;;;;;5005488;28;19913;-59
2023/02/03 00:40:16;;;;;;;;;;;27.70;67.00;;;;;;5003741;28;19917;-63
2023/02/03 00:42:42;;;;;;;;;;;27.90;65.90;;;;;;5005187;28;20223;-71
2023/02/03 00:45:09;;;;;;;;;;;27.80;66.20;;;;;;5005105;28;19936;-59
2023/02/03 00:47:35;;;;;;;;;;;27.90;66.90;;;;;;5004728;28;20374;-63
2023/02/03 00:50:01;;;;;;;;;;;27.80;65.30;;;;;;5006925;28;19917;-64
2023/02/03 00:52:28;;;;;;;;;;;27.90;67.50;;;;;;5005576;28;20404;-62
2023/02/03 00:54:54;;;;;;;;;;;28.20;65.30;;;;;;5004814;28;19921;-62
2023/02/03 00:57:20;;;;;;;;;;;28.60;66.10;;;;;;5004343;28;19968;-70
2023/02/03 00:59:47;;;;;;;;;;;28.50;65.20;;;;;;4986172;28;20016;-64
2023/02/03 01:02:13;;;;;;;;;;;28.30;65.30;;;;;;5002215;28;19921;-61
2023/02/03 01:04:39;;;;;;;;;;;28.40;65.70;;;;;;5003412;28;20413;-61
2023/02/03 01:07:06;;;;;;;;;;;28.90;65.80;;;;;;5002852;28;19924;-60
2023/02/03 01:09:33;;;;;;;;;;;29.00;64.80;;;;;;5004944;28;20350;-64
2023/02/03 01:12:00;;;;;;;;;;;29.10;66.00;;;;;;5003609;28;20349;-60
2023/02/03 01:14:26;;;;;;;;;;;29.10;64.20;;;;;;5004096;28;20091;-61
2023/02/03 01:16:56;;;;;;;;;;;29.20;65.00;;;;;;5003799;28;20675;-68
2023/02/03 01:19:22;;;;;;;;;;;29.30;65.80;;;;;;5004981;28;19936;-65
2023/02/03 01:21:49;;;;;;;;;;;29.40;64.90;;;;;;5004763;28;20024;-62
2023/02/03 01:24:15;;;;;;;;;;;29.60;64.50;;;;;;5004931;28;19910;-63
2023/02/03 01:26:41;;;;;;;;;;;29.70;64.40;;;;;;5004703;28;19909;-70
2023/02/03 01:29:08;;;;;;;;;;;29.80;63.70;;;;;;5004543;28;20004;-65
2023/02/03 01:31:38;;;;;;;;;;;29.50;64.00;;;;;;5001858;28;19924;-62
2023/02/03 01:34:05;;;;;;;;;;;29.40;63.10;;;;;;5004531;28;19914;-71
2023/02/03 01:36:32;;;;;;;;;;;29.30;64.10;;;;;;5004797;28;19909;-62
2023/02/03 01:38:59;;;;;;;;;;;29.20;63.80;;;;;;5003245;28;20390;-60
2023/02/03 01:41:27;;;;;;;;;;;29.10;64.70;;;;;;5003638;28;19909;-62
2023/02/03 01:43:54;;;;;;;;;;;29.30;63.20;;;;;;5005097;28;19905;-66
2023/02/03 01:46:23;;;;;;;;;;;29.50;64.20;;;;;;5003931;28;19909;-69
2023/02/03 01:48:51;;;;;;;;;;;30.00;62.90;;;;;;5002153;28;20019;-64
2023/02/03 01:51:17;;;;;;;;;;;30.00;62.40;;;;;;5004193;28;19910;-69
2023/02/03 01:53:44;;;;;;;;;;;30.20;61.70;;;;;;5003231;28;19968;-69
2023/02/03 01:56:11;;;;;;;;;;;30.10;63.20;;;;;;5004224;28;19968;-64
2023/02/03 01:58:39;;;;;;;;;;;30.10;64.10;;;;;;5003433;28;19921;-69
2023/02/03 02:01:05;;;;;;;;;;;30.00;64.30;;;;;;5003099;28;19999;-60
2023/02/03 02:03:40;;;;;;;;;;;30.20;64.80;;;;;;5002218;28;19971;-60
2023/02/03 02:06:08;;;;;;;;;;;30.10;62.70;;;;;;5004432;28;19913;-64
2023/02/03 02:08:35;;;;;;;;;;;30.50;63.50;;;;;;5004200;28;19924;-71
2023/02/03 02:11:03;;;;;;;;;;;30.60;62.80;;;;;;5007715;28;19924;-62
2023/02/03 02:13:30;;;;;;;;;;;30.50;62.60;;;;;;5007785;28;19962;-70
2023/02/03 02:16:00;;;;;;;;;;;30.50;63.20;;;;;;5005120;28;19917;-62
2023/02/03 02:18:39;;;;;;;;;;;30.40;63.00;;;;;;5007592;28;20362;-61
2023/02/03 02:21:12;;;;;;;;;;;30.90;61.70;;;;;;5007091;28;19914;-66
2023/02/03 02:24:10;;;;;;;;;;;31.20;62.80;;;;;;5005189;28;20284;-70
2023/02/03 02:26:36;;;;;;;;;;;31.10;62.30;;;;;;4940696;29;19910;-72
2023/02/03 02:29:12;;;;;;;;;;;31.10;61.90;;;;;;4946946;29;19910;-60
2023/02/03 02:31:43;;;;;;;;;;;31.60;65.10;;;;;;4945386;29;19962;-62
2023/02/03 02:34:09;;;;;;;;;;;31.60;62.20;;;;;;4929758;29;19911;-69
2023/02/03 02:36:48;;;;;;;;;;;31.40;63.80;;;;;;4947303;29;20488;-69
2023/02/03 02:39:29;;;;;;;;;;;31.80;61.70;;;;;;4946818;29;20278;-66
2023/02/03 02:41:57;;;;;;;;;;;32.40;63.20;;;;;;4942147;29;20274;-63
2023/02/03 02:44:28;;;;;;;;;;;32.90;62.10;;;;;;4946581;29;19914;-66
2023/02/03 02:46:58;;;;;;;;;;;33.00;62.00;;;;;;4943829;29;19914;-62
2023/02/03 02:49:45;;;;;;;;;;;33.10;63.50;;;;;;4946644;29;19910;-66
2023/02/03 02:52:13;;;;;;;;;;;33.60;61.00;;;;;;4946233;29;19959;-66
2023/02/03 02:54:41;;;;;;;;;;;33.80;61.70;;;;;;4939801;29;19966;-67
2023/02/03 02:57:10;;;;;;;;;;;34.20;62.30;;;;;;4939860;29;19961;-61
2023/02/03 02:59:36;;;;;;;;;;;34.90;61.80;;;;;;4929297;29;19993;-61
2023/02/03 03:02:02;;;;;;;;;;;34.50;58.50;;;;;;4966462;28;19915;-68
2023/02/03 03:04:30;;;;;;;;;;;34.50;60.60;;;;;;5006797;28;19916;-66
2023/02/03 03:06:59;;;;;;;;;;;35.00;61.00;;;;;;5006095;28;19909;-66
2023/02/03 03:09:34;;;;;;;;;;;35.10;61.60;;;;;;5006473;28;20317;-62
2023/02/03 03:12:07;;;;;;;;;;;34.80;60.10;;;;;;5000772;28;20322;-61
2023/02/03 03:14:35;;;;;;;;;;;34.40;60.50;;;;;;5006501;28;20162;-68
2023/02/03 03:17:06;;;;;;;;;;;34.40;61.20;;;;;;5006562;28;19910;-61
2023/02/03 03:19:34;;;;;;;;;;;34.50;60.30;;;;;;5006091;28;20354;-65
2023/02/03 03:22:03;;;;;;;;;;;34.60;60.00;;;;;;5006264;28;20095;-61
2023/02/03 03:24:31;;;;;;;;;;;34.10;58.90;;;;;;5006456;28;19909;-68
2023/02/03 03:27:00;;;;;;;;;;;34.50;59.70;;;;;;5006363;28;19913;-61
2023/02/03 03:29:37;;;;;;;;;;;34.90;59.10;;;;;;5006531;28;19909;-68
2023/02/03 03:32:04;;;;;;;;;;;35.00;58.90;;;;;;5000719;28;20087;-65
2023/02/03 03:34:31;;;;;;;;;;;35.50;58.50;;;;;;5005911;28;19925;-61
2023/02/03 03:37:02;;;;;;;;;;;35.90;57.70;;;;;;5005959;28;19910;-63
2023/02/03 03:39:31;;;;;;;;;;;35.90;56.40;;;;;;4989192;28;19952;-62
2023/02/03 03:42:01;;;;;;;;;;;36.10;56.40;;;;;;5005280;28;20075;-63
2023/02/03 03:44:34;;;;;;;;;;;35.60;58.50;;;;;;5005143;28;19920;-62
2023/02/03 03:47:26;;;;;;;;;;;35.10;56.50;;;;;;5003990;28;20492;-63
2023/02/03 03:49:54;;;;;;;;;;;34.80;56.80;;;;;;5002416;28;19913;-68
2023/02/03 03:52:25;;;;;;;;;;;35.10;62.60;;;;;;5006542;28;19913;-61
2023/02/03 03:54:53;;;;;;;;;;;35.00;57.90;;;;;;5006344;28;19967;-66
2023/02/03 03:57:29;;;;;;;;;;;35.10;56.90;;;;;;4999888;28;20414;-61
2023/02/03 03:59:55;;;;;;;;;;;34.80;58.10;;;;;;5006162;28;19922;-61
2023/02/03 04:02:22;;;;;;;;;;;34.60;57.60;;;;;;5005855;28;20024;-61
2023/02/03 04:04:48;;;;;;;;;;;34.30;59.00;;;;;;5006278;28;20321;-60
2023/02/03 04:07:15;;;;;;;;;;;34.30;59.50;;;;;;5006458;28;20309;-67
2023/02/03 04:09:41;;;;;;;;;;;34.40;57.70;;;;;;5006215;28;19909;-67
2023/02/03 04:12:34;;;;;;;;;;;33.90;59.90;;;;;;5006614;28;19940;-67
2023/02/03 04:15:00;;;;;;;;;;;34.20;58.50;;;;;;4999376;28;19917;-67
2023/02/03 04:17:26;;;;;;;;;;;34.40;57.70;;;;;;5000605;28;20574;-67
2023/02/03 04:19:53;;;;;;;;;;;34.50;57.20;;;;;;5004894;28;19971;-61
2023/02/03 04:22:22;;;;;;;;;;;34.70;58.00;;;;;;5004702;28;20270;-61
2023/02/03 04:24:48;;;;;;;;;;;35.00;57.20;;;;;;5003192;28;20305;-67
2023/02/03 04:27:15;;;;;;;;;;;34.90;57.20;;;;;;5009425;28;19968;-69
2023/02/03 04:29:41;;;;;;;;;;;34.60;57.40;;;;;;5006054;28;19917;-61
2023/02/03 04:32:08;;;;;;;;;;;34.50;58.00;;;;;;5004360;28;19956;-68
2023/02/03 04:34:34;;;;;;;;;;;34.80;57.80;;;;;;5008192;28;20188;-69
2023/02/03 04:37:00;;;;;;;;;;;34.60;57.00;;;;;;5004465;28;19917;-69
2023/02/03 04:39:27;;;;;;;;;;;34.30;57.10;;;;;;5001873;28;19913;-61
2023/02/03 04:41:53;;;;;;;;;;;33.70;58.00;;;;;;5007702;28;19914;-63
2023/02/03 04:44:19;;;;;;;;;;;33.10;58.10;;;;;;5006681;28;19936;-68
2023/02/03 04:46:46;;;;;;;;;;;32.70;57.80;;;;;;5003435;28;19971;-62
2023/02/03 04:49:12;;;;;;;;;;;32.10;57.60;;;;;;5002612;28;19924;-62
2023/02/03 04:51:38;;;;;;;;;;;32.50;57.90;;;;;;5003381;28;19940;-61
2023/02/03 04:54:05;;;;;;;;;;;33.30;57.30;;;;;;5003516;28;19984;-63
2023/02/03 04:56:31;;;;;;;;;;;34.20;57.60;;;;;;5003329;28;19963;-67
2023/02/03 04:58:58;;;;;;;;;;;34.50;55.90;;;;;;5003544;28;19932;-67
2023/02/03 05:01:24;;;;;;;;;;;35.00;56.80;;;;;;5003490;28;19917;-61
2023/02/03 05:03:50;;;;;;;;;;;35.90;55.60;;;;;;5002075;28;19984;-63
2023/02/03 05:06:17;;;;;;;;;;;36.50;54.90;;;;;;5005668;28;19913;-69
2023/02/03 05:08:43;;;;;;;;;;;36.40;54.00;;;;;;5003617;28;20419;-63
2023/02/03 05:11:09;;;;;;;;;;;37.10;58.30;;;;;;5002337;28;19917;-62
2023/02/03 05:13:36;;;;;;;;;;;37.60;56.70;;;;;;5003396;28;20183;-68
2023/02/03 05:16:02;;;;;;;;;;;37.60;56.60;;;;;;5004954;28;19925;-70
2023/02/03 05:18:28;;;;;;;;;;;37.80;54.40;;;;;;5004341;28;19972;-67
2023/02/03 05:20:55;;;;;;;;;;;37.40;53.70;;;;;;5005442;28;19910;-62
2023/02/03 05:23:21;;;;;;;;;;;37.10;54.00;;;;;;5003729;28;20388;-63
2023/02/03 05:25:48;;;;;;;;;;;36.60;55.40;;;;;;5010880;28;19920;-68
2023/02/03 05:28:14;;;;;;;;;;;35.90;54.10;;;;;;4999206;28;19917;-62
2023/02/03 05:30:40;;;;;;;;;;;35.00;54.70;;;;;;5006924;28;19956;-69
2023/02/03 05:33:07;;;;;;;;;;;35.30;56.10;;;;;;5003824;28;19917;-63
2023/02/03 05:35:33;;;;;;;;;;;35.70;54.10;;;;;;5004212;28;19917;-70
2023/02/03 05:38:00;;;;;;;;;;;35.50;54.80;;;;;;5003646;28;19917;-69
2023/02/03 05:43:11;;;;;;;;;;;35.00;53.90;;;;;;5004511;28;19919;-69
2023/02/03 05:45:37;;;;;;;;;;;35.10;55.50;;;;;;5008952;28;19925;-68
2023/02/03 05:48:04;;;;;;;;;;;35.40;55.90;;;;;;5008492;28;19913;-67
2023/02/03 05:50:33;;;;;;;;;;;35.20;54.50;;;;;;5010236;28;19918;-69
2023/02/03 05:53:00;;;;;;;;;;;34.70;54.90;;;;;;5010821;28;20374;-62
2023/02/03 05:55:27;;;;;;;;;;;34.80;57.40;;;;;;5010760;28;19920;-62
2023/02/03 05:57:53;;;;;;;;;;;34.40;56.20;;;;;;5008846;28;19916;-62
2023/02/03 06:00:23;;;;;;;;;;;34.10;56.00;;;;;;5010773;28;19917;-61
2023/02/03 06:03:01;;;;;;;;;;;33.90;55.70;;;;;;5011047;28;20436;-67
2023/02/03 06:05:27;;;;;;;;;;;33.90;55.50;;;;;;5003812;28;20375;-62
2023/02/03 06:07:54;;;;;;;;;;;34.40;54.70;;;;;;5010993;28;19912;-69
2023/02/03 06:10:21;;;;;;;;;;;33.60;61.90;;;;;;5011295;28;19909;-62
2023/02/03 06:12:47;;;;;;;;;;;33.60;63.20;;;;;;5011544;28;19917;-69
2023/02/03 06:15:14;;;;;;;;;;;33.10;64.20;;;;;;5011504;28;19917;-69
2023/02/03 06:17:43;;;;;;;;;;;32.50;64.40;;;;;;5011116;28;19932;-64
2023/02/03 06:20:10;;;;;;;;;;;32.70;65.10;;;;;;5007065;28;19913;-64
2023/02/03 06:22:37;;;;;;;;;;;32.90;65.70;;;;;;5007187;28;20543;-67
2023/02/03 06:25:03;;;;;;;;;;;33.70;64.60;;;;;;5010076;28;19916;-67
2023/02/03 06:27:30;;;;;;;;;;;34.50;64.40;;;;;;5010390;28;20408;-68
2023/02/03 06:29:56;;;;;;;;;;;33.80;64.40;;;;;;5009291;28;19913;-63
2023/02/03 06:32:22;;;;;;;;;;;32.20;66.60;;;;;;5010606;28;20135;-63
2023/02/03 06:34:49;;;;;;;;;;;31.20;68.60;;;;;;5010410;28;19913;-65
2023/02/03 06:37:15;;;;;;;;;;;30.40;69.90;;;;;;5016046;28;19932;-66
2023/02/03 06:39:41;;;;;;;;;;;29.80;70.30;;;;;;5009192;28;19960;-67
2023/02/03 06:42:08;;;;;;;;;;;29.00;71.20;;;;;;5008964;28;20358;-64
2023/02/03 06:44:34;;;;;;;;;;;28.40;72.30;;;;;;5009750;28;19921;-64
2023/02/03 06:47:03;;;;;;;;;;;28.20;73.10;;;;;;5007582;28;20015;-69
2023/02/03 06:49:30;;;;;;;;;;;28.10;73.40;;;;;;5008193;28;19924;-67
2023/02/03 06:51:56;;;;;;;;;;;28.60;72.80;;;;;;5009351;28;19914;-69
2023/02/03 06:54:22;;;;;;;;;;;29.90;71.20;;;;;;5009616;28;20012;-67
2023/02/03 06:56:49;;;;;;;;;;;30.60;69.80;;;;;;5009601;28;19914;-62
2023/02/03 06:59:15;;;;;;;;;;;30.90;69.40;;;;;;5009124;28;19933;-68
2023/02/03 07:01:41;;;;;;;;;;;31.00;69.80;;;;;;5009047;28;19913;-63
2023/02/03 07:04:09;;;;;;;;;;;32.00;68.70;;;;;;5009937;28;20243;-68
2023/02/03 07:06:35;;;;;;;;;;;32.00;67.90;;;;;;5009396;28;19913;-69
2023/02/03 07:09:02;;;;;;;;;;;32.40;67.10;;;;;;5009843;28;20270;-64
2023/02/03 07:11:29;;;;;;;;;;;32.40;66.40;;;;;;5008737;28;19979;-64
2023/02/03 07:13:55;;;;;;;;;;;32.40;66.80;;;;;;5008357;28;19913;-64
2023/02/03 07:16:22;;;;;;;;;;;32.00;68.90;;;;;;5011587;28;19917;-64
2023/02/03 07:18:49;;;;;;;;;;;32.20;67.60;;;;;;5008345;28;19924;-68
2023/02/03 07:21:16;;;;;;;;;;;32.20;68.40;;;;;;5010116;28;19955;-68
2023/02/03 07:23:43;;;;;;;;;;;32.60;66.50;;;;;;5005609;28;20453;-62
2023/02/03 07:26:09;;;;;;;;;;;33.40;67.00;;;;;;5008279;28;20014;-64
2023/02/03 07:28:36;;;;;;;;;;;33.60;65.60;;;;;;5009441;28;19955;-69
2023/02/03 07:31:06;;;;;;;;;;;32.50;67.10;;;;;;5012515;28;19913;-63
2023/02/03 07:33:35;;;;;;;;;;;33.00;67.60;;;;;;5015366;28;19948;-69
2023/02/03 07:36:02;;;;;;;;;;;33.70;67.20;;;;;;5012170;28;20378;-67
2023/02/03 07:38:28;;;;;;;;;;;34.50;66.40;;;;;;5011456;28;19936;-63
2023/02/03 07:40:55;;;;;;;;;;;34.90;65.00;;;;;;4992666;28;20332;-68
2023/02/03 07:43:21;;;;;;;;;;;35.10;65.80;;;;;;4991968;28;19956;-69
2023/02/03 07:45:48;;;;;;;;;;;35.20;65.80;;;;;;4989177;28;19913;-69
2023/02/03 07:48:14;;;;;;;;;;;35.20;65.50;;;;;;5002477;28;20319;-63
2023/02/03 07:50:41;;;;;;;;;;;34.90;65.00;;;;;;5003435;28;19949;-70
2023/02/03 07:53:10;;;;;;;;;;;34.60;66.60;;;;;;5008532;28;19913;-64
2023/02/03 07:55:39;;;;;;;;;;;33.60;66.00;;;;;;5008200;28;20356;-63
2023/02/03 07:58:06;;;;;;;;;;;32.20;68.60;;;;;;4315529;28;10000264;-66
2023/02/03 08:00:32;;;;;;;;;;;31.80;69.90;;;;;;5005503;28;20011;-67
2023/02/03 08:02:58;;;;;;;;;;;32.60;69.80;;;;;;5004358;28;19909;-69
2023/02/03 08:05:25;;;;;;;;;;;33.20;68.50;;;;;;5002810;28;19921;-63
2023/02/03 08:07:51;;;;;;;;;;;33.50;67.80;;;;;;4989150;28;19913;-64
2023/02/03 08:10:18;;;;;;;;;;;33.80;66.60;;;;;;5003172;28;19914;-61
2023/02/03 08:12:45;;;;;;;;;;;33.80;66.30;;;;;;5002941;28;20290;-61
2023/02/03 08:15:12;;;;;;;;;;;33.50;67.00;;;;;;5006994;28;20404;-61
2023/02/03 08:17:40;;;;;;;;;;;33.10;67.20;;;;;;4983625;28;19909;-65
2023/02/03 08:20:07;;;;;;;;;;;32.60;67.50;;;;;;5003673;28;20184;-64
2023/02/03 08:22:33;;;;;;;;;;;32.00;68.50;;;;;;5005836;28;19912;-65
2023/02/03 08:24:59;;;;;;;;;;;31.50;69.20;;;;;;5008079;28;19917;-62
2023/02/03 08:27:26;;;;;;;;;;;31.30;70.20;;;;;;5006407;28;19951;-65
2023/02/03 08:29:52;;;;;;;;;;;30.90;70.30;;;;;;4996559;28;19913;-62
2023/02/03 08:32:20;;;;;;;;;;;30.50;70.40;;;;;;5002178;28;20416;-61
2023/02/03 08:34:47;;;;;;;;;;;30.00;71.50;;;;;;4999236;28;19917;-61
2023/02/03 08:37:15;;;;;;;;;;;29.30;72.30;;;;;;5003026;28;19920;-65
2023/02/03 08:39:42;;;;;;;;;;;28.20;74.10;;;;;;5001676;28;19919;-66
2023/02/03 08:42:09;;;;;;;;;;;27.00;76.30;;;;;;5004722;28;20377;-66
2023/02/03 08:44:35;;;;;;;;;;;26.30;78.10;;;;;;5002781;28;19913;-70
2023/02/03 08:47:01;;;;;;;;;;;25.80;79.20;;;;;;4983885;28;20023;-66
2023/02/03 08:49:28;;;;;;;;;;;25.60;80.30;;;;;;5003408;28;20377;-67
2023/02/03 08:51:55;;;;;;;;;;;25.50;80.10;;;;;;5004551;28;19924;-70
2023/02/03 08:54:22;;;;;;;;;;;25.20;81.40;;;;;;5000432;28;20013;-65
2023/02/03 08:56:48;;;;;;;;;;;25.20;81.40;;;;;;4999217;28;19913;-61
2023/02/03 08:59:14;;;;;;;;;;;24.90;82.00;;;;;;5000569;28;19925;-71
2023/02/03 09:01:44;;;;;;;;;;;24.70;82.60;;;;;;5000832;28;20664;-61
2023/02/03 09:04:11;;;;;;;;;;;24.50;83.30;;;;;;4999599;28;19920;-71
2023/02/03 09:06:38;;;;;;;;;;;24.30;84.30;;;;;;5000240;28;19915;-62
2023/02/03 09:09:04;;;;;;;;;;;24.20;84.50;;;;;;4999478;28;19952;-60
2023/02/03 09:11:31;;;;;;;;;;;24.10;85.10;;;;;;4999880;28;19909;-61
2023/02/03 09:14:00;;;;;;;;;;;24.00;85.40;;;;;;4999766;28;20178;-61
2023/02/03 09:16:27;;;;;;;;;;;24.00;85.10;;;;;;5004671;28;19917;-70
2023/02/03 09:18:53;;;;;;;;;;;23.90;86.00;;;;;;4987610;28;19913;-66
2023/02/03 09:21:19;;;;;;;;;;;23.90;86.00;;;;;;4657533;28;9999901;-66
2023/02/03 09:23:46;;;;;;;;;;;23.80;86.20;;;;;;5004206;28;19910;-65
2023/02/03 09:26:13;;;;;;;;;;;23.80;86.00;;;;;;5001997;28;20006;-63
2023/02/03 09:28:39;;;;;;;;;;;23.70;86.60;;;;;;5001376;28;19924;-65
2023/02/03 09:31:07;;;;;;;;;;;23.50;86.70;;;;;;5001411;28;19959;-63
2023/02/03 09:33:34;;;;;;;;;;;23.30;87.00;;;;;;4999724;28;19914;-63
2023/02/03 09:36:01;;;;;;;;;;;23.30;87.40;;;;;;5001049;28;20117;-68
2023/02/03 09:38:27;;;;;;;;;;;23.00;88.30;;;;;;5002263;28;19909;-68
2023/02/03 09:40:56;;;;;;;;;;;22.90;89.50;;;;;;5001603;28;19944;-68
2023/02/03 09:43:40;;;;;;;;;;;22.80;89.70;;;;;;5001681;28;20162;-64
2023/02/03 09:46:18;;;;;;;;;;;22.50;90.30;;;;;;5001330;28;19996;-69
2023/02/03 09:48:48;;;;;;;;;;;22.50;90.30;;;;;;5005684;28;19976;-68
2023/02/03 09:51:38;;;;;;;;;;;22.50;90.50;;;;;;5003239;28;20553;-65
2023/02/03 09:54:11;;;;;;;;;;;22.50;90.60;;;;;;5002092;28;19966;-66
2023/02/03 09:56:39;;;;;;;;;;;22.50;90.40;;;;;;5006685;28;19920;-68
2023/02/03 09:59:05;;;;;;;;;;;22.60;90.20;;;;;;4709533;22;10001470;-67
2023/02/03 10:01:41;;;;;;;;;;;22.50;90.60;;;;;;5023890;28;20007;-70
2023/02/03 10:04:26;;;;;;;;;;;22.40;90.80;;;;;;5016628;28;19913;-64
2023/02/03 10:06:57;;;;;;;;;;;22.30;91.00;;;;;;5019070;28;19917;-66
2023/02/03 10:09:24;;;;;;;;;;;22.30;91.30;;;;;;5022004;28;19912;-66
2023/02/03 10:12:02;;;;;;;;;;;22.20;91.40;;;;;;5023316;28;19917;-68
2023/02/03 10:14:31;;;;;;;;;;;22.10;91.60;;;;;;5020601;28;20254;-68
2023/02/03 10:17:04;;;;;;;;;;;22.00;91.80;;;;;;5023596;28;19909;-71
2023/02/03 10:19:38;;;;;;;;;;;22.00;92.20;;;;;;5026304;28;20023;-67
2023/02/03 10:22:04;;;;;;;;;;;22.00;92.20;;;;;;5035603;28;19920;-67
2023/02/03 10:24:34;;;;;;;;;;;22.00;92.30;;;;;;5033237;28;19928;-68
2023/02/03 10:27:03;;;;;;;;;;;22.00;92.50;;;;;;5029763;28;19920;-69
2023/02/03 10:29:41;;;;;;;;;;;22.00;92.50;;;;;;5031845;28;19917;-66
2023/02/03 10:32:09;;;;;;;;;;;22.10;92.10;;;;;;5031745;28;19971;-69
2023/02/03 10:34:36;;;;;;;;;;;22.10;92.50;;;;;;5038650;28;20109;-66
2023/02/03 10:37:05;;;;;;;;;;;22.10;92.30;;;;;;5039896;28;20054;-64
2023/02/03 10:39:32;;;;;;;;;;;21.90;93.00;;;;;;5039986;28;19912;-70
2023/02/03 10:41:59;;;;;;;;;;;21.90;92.90;;;;;;5029858;28;20416;-71
2023/02/03 10:44:33;;;;;;;;;;;21.80;93.10;;;;;;5037798;28;19957;-68
2023/02/03 10:47:00;;;;;;;;;;;21.80;93.60;;;;;;5026959;28;20543;-66
2023/02/03 10:49:28;;;;;;;;;;;21.80;93.90;;;;;;5029600;28;20333;-64
2023/02/03 10:52:00;;;;;;;;;;;21.80;93.80;;;;;;5029944;28;20390;-67
2023/02/03 10:54:28;;;;;;;;;;;21.70;93.90;;;;;;5034404;28;19955;-65
2023/02/03 10:56:57;;;;;;;;;;;21.60;94.20;;;;;;5039460;28;19912;-67
2023/02/03 10:59:27;;;;;;;;;;;21.70;93.80;;;;;;5031492;28;19936;-66
2023/02/03 11:01:54;;;;;;;;;;;21.70;93.50;;;;;;5039566;28;19965;-71
2023/02/03 11:04:42;;;;;;;;;;;21.50;94.50;;;;;;5040439;28;19998;-67
2023/02/03 11:07:22;;;;;;;;;;;21.40;95.30;;;;;;5042875;28;19916;-71
2023/02/03 11:09:48;;;;;;;;;;;21.40;95.50;;;;;;5035106;28;19912;-70
2023/02/03 11:12:16;;;;;;;;;;;21.30;95.60;;;;;;5039787;28;19912;-69
2023/02/03 11:14:52;;;;;;;;;;;21.20;96.10;;;;;;5035748;28;20361;-66
2023/02/03 11:17:23;;;;;;;;;;;21.10;96.20;;;;;;5039205;28;19920;-69
2023/02/03 11:19:54;;;;;;;;;;;20.90;96.70;;;;;;5040336;28;19920;-66
2023/02/03 11:22:28;;;;;;;;;;;20.80;97.20;;;;;;5044570;28;19913;-70
2023/02/03 11:24:54;;;;;;;;;;;20.80;97.50;;;;;;5040563;28;19936;-65
2023/02/03 11:27:26;;;;;;;;;;;20.70;97.70;;;;;;4690269;28;10000300;-70
2023/02/03 11:30:15;;;;;;;;;;;20.70;97.90;;;;;;5041854;28;19948;-65
2023/02/03 11:32:43;;;;;;;;;;;20.70;98.10;;;;;;5046776;28;19912;-64
2023/02/03 11:35:25;;;;;;;;;;;20.70;98.70;;;;;;5045261;28;20300;-64
2023/02/03 11:37:56;;;;;;;;;;;20.70;98.30;;;;;;5035631;28;19939;-65
2023/02/03 11:40:27;;;;;;;;;;;20.70;98.50;;;;;;5044723;28;20427;-67
2023/02/03 11:42:53;;;;;;;;;;;20.60;99.10;;;;;;5046721;28;20455;-68
2023/02/03 11:45:32;;;;;;;;;;;20.50;99.50;;;;;;5040750;28;19913;-65
2023/02/03 11:48:01;;;;;;;;;;;20.40;99.90;;;;;;5045284;28;20373;-70
2023/02/03 11:50:29;;;;;;;;;;;20.30;99.90;;;;;;5038819;28;19943;-66
2023/02/03 11:53:19;;;;;;;;;;;20.30;99.90;;;;;;5044080;28;20451;-64
2023/02/03 11:55:45;;;;;;;;;;;20.40;99.90;;;;;;5040221;28;19960;-69
2023/02/03 11:58:39;;;;;;;;;;;20.70;99.70;;;;;;5038477;28;19916;-66
2023/02/03 12:01:11;;;;;;;;;;;20.90;99.20;;;;;;5043689;28;19917;-69
2023/02/03 12:03:41;;;;;;;;;;;20.90;99.50;;;;;;5044269;28;19913;-70
2023/02/03 12:06:25;;;;;;;;;;;20.80;99.60;;;;;;5042663;28;20003;-65
2023/02/03 12:08:58;;;;;;;;;;;21.00;99.10;;;;;;5042150;28;20011;-69
2023/02/03 12:11:31;;;;;;;;;;;21.20;97.50;;;;;;5033945;28;19920;-70
2023/02/03 12:14:00;;;;;;;;;;;21.20;96.20;;;;;;5036545;28;20274;-69
2023/02/03 12:16:39;;;;;;;;;;;21.20;96.20;;;;;;5042197;28;19987;-66
2023/02/03 12:19:36;;;;;;;;;;;21.10;95.80;;;;;;5039551;28;19919;-70
2023/02/03 12:22:02;;;;;;;;;;;21.10;93.40;;;;;;4961908;28;20618;-64
2023/02/03 12:24:40;;;;;;;;;;;21.10;92.80;;;;;;4964320;28;19914;-65
2023/02/03 12:27:22;;;;;;;;;;;21.10;91.30;;;;;;4967818;28;19965;-65
2023/02/03 12:29:53;;;;;;;;;;;21.10;91.40;;;;;;4965255;28;19985;-64
2023/02/03 12:32:45;;;;;;;;;;;21.10;90.90;;;;;;4950720;28;19932;-69
2023/02/03 12:35:25;;;;;;;;;;;21.00;90.50;;;;;;4961113;28;19996;-66
2023/02/03 12:37:58;;;;;;;;;;;21.00;89.30;;;;;;4962221;28;19965;-69
2023/02/03 12:40:39;;;;;;;;;;;21.00;87.30;;;;;;4962830;28;19996;-63
2023/02/03 12:43:24;;;;;;;;;;;20.90;86.30;;;;;;4966842;28;19914;-69
2023/02/03 12:46:11;;;;;;;;;;;21.00;83.80;;;;;;4970692;28;19914;-69
2023/02/03 12:48:50;;;;;;;;;;;20.90;83.40;;;;;;4960214;28;20165;-64
2023/02/03 12:51:23;;;;;;;;;;;20.90;82.40;;;;;;4966615;28;19914;-70
2023/02/03 12:53:52;;;;;;;;;;;20.80;82.80;;;;;;4967980;28;19906;-68
2023/02/03 12:56:24;;;;;;;;;;;20.70;82.90;;;;;;4967555;28;20301;-65
2023/02/03 12:59:01;;;;;;;;;;;20.80;82.10;;;;;;5019975;28;19928;-63
2023/02/03 13:01:33;;;;;;;;;;;20.80;80.80;;;;;;5041939;28;19916;-70
2023/02/03 13:04:00;;;;;;;;;;;20.80;80.30;;;;;;5048099;28;19927;-68
2023/02/03 13:06:45;;;;;;;;;;;20.80;78.70;;;;;;5048427;28;19983;-68
2023/02/03 13:09:14;;;;;;;;;;;20.80;80.60;;;;;;5049086;28;19908;-66
2023/02/03 13:11:47;;;;;;;;;;;20.70;80.20;;;;;;5030238;28;19909;-65
2023/02/03 13:14:22;;;;;;;;;;;20.70;78.90;;;;;;5048048;28;20311;-65
2023/02/03 13:16:54;;;;;;;;;;;20.70;78.40;;;;;;5045717;28;20474;-65
2023/02/03 13:19:22;;;;;;;;;;;20.70;78.20;;;;;;5048480;28;19913;-71
2023/02/03 13:21:49;;;;;;;;;;;20.70;78.70;;;;;;5034469;28;19913;-66
2023/02/03 13:24:16;;;;;;;;;;;20.60;80.40;;;;;;5048912;28;19908;-64
2023/02/03 13:27:04;;;;;;;;;;;20.70;78.50;;;;;;5045798;28;19916;-70
2023/02/03 13:29:41;;;;;;;;;;;20.70;77.60;;;;;;5049117;28;19916;-65
2023/02/03 13:32:30;;;;;;;;;;;20.60;78.60;;;;;;5039033;28;19924;-65
2023/02/03 13:35:12;;;;;;;;;;;20.60;78.50;;;;;;5047473;28;19974;-65
2023/02/03 13:37:44;;;;;;;;;;;20.60;78.40;;;;;;5046481;28;19909;-64
2023/02/03 13:40:29;;;;;;;;;;;20.60;79.20;;;;;;5047496;28;19917;-65
2023/02/03 13:43:00;;;;;;;;;;;20.60;77.50;;;;;;5047185;28;19913;-64
2023/02/03 13:45:41;;;;;;;;;;;20.70;77.60;;;;;;5043986;28;20281;-71
2023/02/03 13:48:10;;;;;;;;;;;20.60;77.60;;;;;;5027400;28;20323;-62
2023/02/03 13:50:37;;;;;;;;;;;20.70;76.60;;;;;;5047560;28;19958;-68
2023/02/03 13:53:24;;;;;;;;;;;20.60;75.50;;;;;;5047532;28;19919;-70
2023/02/03 13:55:54;;;;;;;;;;;20.60;76.40;;;;;;5046960;28;19912;-62
2023/02/03 13:58:23;;;;;;;;;;;20.60;75.70;;;;;;5047417;28;19924;-68
2023/02/03 14:00:50;;;;;;;;;;;20.60;75.90;;;;;;5043342;28;19913;-67
2023/02/03 14:03:17;;;;;;;;;;;20.60;74.20;;;;;;5048033;28;19966;-70
2023/02/03 14:05:44;;;;;;;;;;;20.70;72.60;;;;;;5050051;28;19908;-68
2023/02/03 14:08:26;;;;;;;;;;;20.70;75.40;;;;;;5050180;28;20322;-64
2023/02/03 14:11:11;;;;;;;;;;;20.70;73.00;;;;;;5046982;28;19970;-63
2023/02/03 14:13:37;;;;;;;;;;;20.60;74.10;;;;;;5043216;28;20245;-64
2023/02/03 14:16:14;;;;;;;;;;;20.70;73.50;;;;;;5046998;28;20228;-63
2023/02/03 14:18:44;;;;;;;;;;;20.70;73.10;;;;;;5043996;28;20301;-62
2023/02/03 14:21:17;;;;;;;;;;;20.60;72.70;;;;;;5037057;28;19913;-62
2023/02/03 14:23:49;;;;;;;;;;;20.60;72.70;;;;;;5051784;28;19918;-69
2023/02/03 14:26:21;;;;;;;;;;;20.50;73.70;;;;;;5040279;28;19909;-62
2023/02/03 14:28:48;;;;;;;;;;;20.50;72.90;;;;;;5047692;28;19986;-62
2023/02/03 14:31:37;;;;;;;;;;;20.50;72.70;;;;;;5043396;28;20312;-68
2023/02/03 14:34:11;;;;;;;;;;;20.50;72.80;;;;;;5051798;28;19909;-69